• Join FlightAware (Why Join?)
  • Login
  • US Flag 
05:27AM EST


 

Airport Tracker/Info


-or-


 

Live Flight TrackerFlight Track Log ✈ N1944E ✈ 10-Jan-2014 ✈ KCOD - KJAC

Flight Track Log - Related Links

Times and Time Zones

All times are in EST time to prevent confusion due to time zone crossing. See the N1944E flight status page for this flight to view local times or setup timezone preferences in your user account.

Time Position Orientation Groundspeed Altitude Reporting Facility
EST Latitude Longitude Course Direction KTS MPH feet Rate Location/Type
06:23PM 44.5319 -108.9864 235° Southwest 135 155 8,400  Level Salt Lake Center
06:24PM 44.5422 -109.0136 298° West 137 158 9,500 1,080 Climbing Salt Lake Center
06:25PM 44.5181 -109.0533 230° Southwest 136 157 10,700 1,200 Climbing Salt Lake Center
06:26PM 44.5003 -109.0953 239° Southwest 132 152 12,000 1,260 Climbing Salt Lake Center
06:27PM 44.4719 -109.1414 229° Southwest 129 148 13,400 960 Climbing Salt Lake Center
06:28PM 44.4508 -109.1858 236° Southwest 135 155 14,000 780 Climbing Salt Lake Center
06:29PM 44.3523 -109.3468 235° Southwest  Level Estimated
06:29PM 44.4292 -109.2275 234° Southwest 134 154 15,100  Level Salt Lake Center
06:30PM 44.4008 -109.2719 228° Southwest 145 167 16,100 480 Climbing Salt Lake Center
06:31PM 44.3750 -109.3269 237° Southwest 163 188 16,100  Level Salt Lake Center
06:32PM 44.3472 -109.3844 236° Southwest 174 200 16,100  Level Salt Lake Center
06:33PM 44.3131 -109.4464 232° Southwest 192 221 16,100  Level Salt Lake Center
06:35PM 44.2761 -109.5128 232° Southwest 196 226 16,100 -180 Level Salt Lake Center
06:36PM 44.2428 -109.5731 232° Southwest 182 209 15,800 -120 Descending Salt Lake Center
06:37PM 44.2203 -109.6208 237° Southwest 164 189 15,900  Climbing Salt Lake Center
06:38PM 44.1994 -109.6678 238° Southwest 153 176 15,900 -60 Level Salt Lake Center
06:39PM 44.1667 -109.7297 234° Southwest 169 194 15,800  Descending Salt Lake Center
06:40PM 44.1356 -109.7808 230° Southwest 177 204 15,900  Climbing Salt Lake Center
06:41PM 44.1064 -109.8364 234° Southwest 166 191 15,900  Level Salt Lake Center
06:42PM 44.0792 -109.8856 232° Southwest 166 191 15,900  Level Salt Lake Center
06:43PM 44.0364 -109.9092 202° Southwest 194 223 15,900  Level Salt Lake Center
06:44PM 43.9642 -109.8869 168° South 232 267 15,900  Level Salt Lake Center
06:45PM 43.9047 -109.8669 166° South 233 268 15,900  Level Salt Lake Center
06:46PM 43.8400 -109.8464 167° South 221 254 15,900  Level Salt Lake Center
06:47PM 43.7917 -109.8600 191° South 174 200 15,900  Level Salt Lake Center
06:48PM 43.7517 -109.8964 213° Southwest 170 196 15,900  Level Salt Lake Center
06:49PM 43.7111 -109.9333 213° Southwest 175 201 15,900  Level Salt Lake Center
06:50PM 43.7061 -109.9636 257° West 91 105 15,900  Level Salt Lake Center
06:51PM 43.7100 -109.9939 280° West 81 93 15,900  Level Salt Lake Center
06:52PM 43.7203 -110.0169 302° West 73 84 15,900 -480 Level Salt Lake Center
06:53PM 43.7386 -110.0544 304° West 99 114 15,000 -720 Descending Salt Lake Center
06:54PM 43.7539 -110.0928 299° West 123 142 14,500 -540 Descending Salt Lake Center
06:55PM 43.7694 -110.1411 294° West 130 150 13,900 -360 Descending Salt Lake Center
06:56PM 43.7850 -110.1919 293° West 130 150 13,800 60 Descending Salt Lake Center
06:57PM 43.7978 -110.2294 295° West 113 130 14,100 -120 Climbing Salt Lake Center
06:58PM 43.8128 -110.2736 295° West 115 132 13,600 -540 Descending Salt Lake Center
06:59PM 43.8272 -110.3242 292° West 133 153 13,000 -780 Descending Salt Lake Center
07:00PM 43.8289 -110.3839 272° West 136 157 12,100 -660 Descending Salt Lake Center
07:02PM 43.8206 -110.4994 264° West 152 175 11,100 -540 Descending Salt Lake Center
07:03PM 43.8086 -110.5544 253° West 136 157 10,600 -720 Descending Salt Lake Center
07:04PM 43.7892 -110.6114 245° Southwest 151 174 9,700 -960 Descending Salt Lake Center
07:05PM 43.7583 -110.6578 227° Southwest 162 186 8,700 -540 Descending Salt Lake Center
07:06PM 43.7256 -110.6839 210° Southwest 146 168 8,600 -300 Descending Salt Lake Center
07:07PM 43.6944 -110.6964 196° South 127 146 8,100 -540 Descending Salt Lake Center
07:08PM 43.6644 -110.7103 199° South 117 135 7,600 -540 Descending Salt Lake Center
07:09PM 43.6347 -110.7242 199° South 115 132 7,000 -540 Descending Salt Lake Center
07:10PM 43.6097 -110.7367 200° South 105 121 6,500 -540 Descending Salt Lake Center